Time;durP1;ratioP1;P1;durP2;ratioP2;P2;SDS_P1;SDS_P2;PMS_P1;PMS_P2;Temp;Humidity;BMP_temperature;BMP_pressure;BME280_temperature;BME280_humidity;BME280_pressure;Samples;Min_cycle;Max_cycle;Signal;HPM_P1;HPM_P2
2021/12/17 00:04:53;;;;;;;0.50;0.50;;;6.20;99.90;6.30;103775.00;;;;5014632;28;20650;-73
2021/12/17 00:07:22;;;;;;;0.50;0.50;;;6.20;99.90;6.40;103797.00;;;;5016657;28;20179;-74
2021/12/17 00:09:50;;;;;;;0.57;0.57;;;6.10;99.90;6.20;103750.00;;;;5014385;28;20190;-74
2021/12/17 00:12:28;;;;;;;0.40;0.40;;;6.10;99.90;6.40;103801.00;;;;5015350;28;20249;-74
2021/12/17 00:14:54;;;;;;;2.63;2.53;;;6.20;99.90;6.20;103804.00;;;;5014743;28;20287;-75
2021/12/17 00:17:31;;;;;;;4.93;3.90;;;6.10;99.90;6.10;103801.00;;;;5013905;28;20200;-74
2021/12/17 00:54:06;;;;;;;0.90;0.90;;;6.10;99.90;5.80;103789.00;;;;5013888;28;20193;-76
2021/12/17 00:56:38;;;;;;;1.93;1.93;;;6.00;99.90;6.00;103746.00;;;;5013892;28;20175;-75
2021/12/17 00:59:12;;;;;;;0.90;0.90;;;5.90;99.90;6.10;103787.00;;;;5014015;28;20661;-75
2021/12/17 01:01:45;;;;;;;0.70;0.70;;;5.90;99.90;6.40;103799.00;;;;5029304;28;20238;-75
2021/12/17 01:04:17;;;;;;;0.60;0.60;;;6.00;99.90;6.70;103790.00;;;;5012412;28;20246;-73
2021/12/17 01:06:48;;;;;;;0.70;0.70;;;6.20;99.90;6.40;103797.00;;;;5012744;28;20558;-73
2021/12/17 01:09:22;;;;;;;20.03;18.83;;;6.20;99.90;6.20;103781.00;;;;5013448;28;20187;-73
2021/12/17 01:11:54;;;;;;;0.50;0.50;;;6.00;99.90;6.20;103787.00;;;;5013723;28;20229;-73
2021/12/17 01:14:31;;;;;;;0.60;0.60;;;6.00;99.90;6.10;103788.00;;;;5013532;28;20707;-73
2021/12/17 01:17:01;;;;;;;0.50;0.50;;;5.80;99.90;6.10;103785.00;;;;5013689;28;20256;-74
2021/12/17 01:20:52;;;;;;;1.07;1.07;;;5.80;99.90;5.90;103777.00;;;;5013115;28;20191;-73
2021/12/17 01:25:42;;;;;;;1.07;1.07;;;5.80;99.90;6.70;103744.00;;;;5013213;28;20243;-74
2021/12/17 01:36:40;;;;;;;0.50;0.50;;;6.70;99.90;6.80;103785.00;;;;5012729;28;20207;-74
2021/12/17 01:42:05;;;;;;;0.97;0.97;;;6.70;99.90;6.70;103788.00;;;;5012578;28;20194;-74
2021/12/17 01:44:35;;;;;;;0.67;0.67;;;6.60;99.90;6.60;103790.00;;;;5013563;28;20535;-74
2021/12/17 01:47:10;;;;;;;2.43;2.33;;;6.60;99.90;7.00;103780.00;;;;5012895;28;20182;-74
2021/12/17 01:55:48;;;;;;;0.50;0.50;;;6.70;99.90;6.70;103781.00;;;;5013053;28;20180;-74
2021/12/17 02:00:59;;;;;;;0.83;0.83;;;6.30;99.90;6.70;103762.00;;;;5012692;28;20183;-73
2021/12/17 02:03:31;;;;;;;0.50;0.50;;;6.40;99.90;6.90;103763.00;;;;5013693;28;20192;-73
2021/12/17 02:06:04;;;;;;;0.40;0.40;;;6.50;99.90;6.30;103735.00;;;;5011419;28;20193;-73
2021/12/17 02:08:38;;;;;;;0.50;0.50;;;6.30;99.90;6.40;103786.00;;;;5013086;28;20574;-73
2021/12/17 02:11:43;;;;;;;0.50;0.50;;;6.20;99.90;6.70;103783.00;;;;5011666;28;20182;-73
2021/12/17 02:22:32;;;;;;;0.40;0.40;;;6.70;99.90;6.70;103771.00;;;;5012316;28;20189;-76
2021/12/17 02:33:15;;;;;;;0.90;0.90;;;6.30;99.90;6.50;103734.00;;;;5011273;28;20775;-76
2021/12/17 02:35:47;;;;;;;0.47;0.47;;;6.30;99.90;6.20;103768.00;;;;5012301;28;20182;-76
2021/12/17 02:38:21;;;;;;;0.70;0.70;;;6.30;99.90;6.20;103726.00;;;;5012277;28;20215;-75
2021/12/17 02:46:39;;;;;;;0.97;0.97;;;6.40;99.90;6.60;103781.00;;;;5001201;28;20538;-74
2021/12/17 02:49:18;;;;;;;0.80;0.80;;;6.40;99.90;6.10;103760.00;;;;5013302;28;20185;-73
2021/12/17 02:51:52;;;;;;;1.23;1.13;;;6.30;99.90;6.50;103775.00;;;;5011597;28;20288;-73
2021/12/17 02:54:33;;;;;;;1.40;1.40;;;6.30;99.90;6.50;103767.00;;;;5011927;28;20184;-74
2021/12/17 02:57:10;;;;;;;0.70;0.70;;;6.40;99.90;6.80;103769.00;;;;5012118;28;20208;-75
2021/12/17 02:59:42;;;;;;;1.70;1.60;;;6.50;99.90;6.50;103722.00;;;;5013297;28;20185;-75
2021/12/17 03:02:11;;;;;;;3.73;3.50;;;6.40;99.90;6.50;103752.00;;;;5012067;28;20200;-74
2021/12/17 03:04:43;;;;;;;0.50;0.50;;;6.40;99.90;6.30;103769.00;;;;5011113;28;20187;-74
2021/12/17 03:07:21;;;;;;;0.50;0.50;;;6.30;99.90;6.00;103766.00;;;;5011989;28;20176;-74
2021/12/17 03:10:03;;;;;;;0.90;0.90;;;6.10;99.90;6.40;103762.00;;;;5011904;28;20187;-74
2021/12/17 03:12:40;;;;;;;1.30;1.30;;;6.20;99.90;6.10;103778.00;;;;5011432;28;20637;-73
2021/12/17 03:16:27;;;;;;;2.73;2.47;;;6.00;99.90;5.50;103762.00;;;;5013199;28;20334;-74
2021/12/17 03:23:42;;;;;;;0.43;0.43;;;5.40;99.90;5.80;103763.00;;;;5015787;28;20249;-73
2021/12/17 03:26:10;;;;;;;1.30;1.30;;;5.50;99.90;5.60;103766.00;;;;5015334;28;20632;-74
2021/12/17 03:28:41;;;;;;;3.43;2.47;;;5.70;99.90;6.00;103751.00;;;;5015333;28;20258;-73
2021/12/17 03:31:15;;;;;;;0.60;0.60;;;5.80;99.90;6.20;103771.00;;;;5015256;28;20549;-74
2021/12/17 03:33:49;;;;;;;1.80;1.70;;;6.00;99.90;6.50;103723.00;;;;5014923;28;20210;-75
2021/12/17 03:36:21;;;;;;;0.60;0.60;;;6.20;99.90;6.20;103763.00;;;;5016279;28;20183;-77
2021/12/17 03:38:51;;;;;;;1.47;1.47;;;6.20;99.90;5.90;103750.00;;;;5015112;28;20184;-78
2021/12/17 03:41:22;;;;;;;0.50;0.50;;;6.00;99.90;6.40;103729.00;;;;5015571;28;20191;-78
2021/12/17 03:43:55;;;;;;;0.50;0.50;;;6.10;99.90;6.10;103761.00;;;;5015038;28;20188;-77
2021/12/17 03:46:29;;;;;;;0.50;0.50;;;6.10;99.90;6.40;103751.00;;;;5014876;28;20188;-78
2021/12/17 03:49:02;;;;;;;1.83;1.73;;;6.10;99.90;6.60;103761.00;;;;5015444;28;20179;-77
2021/12/17 03:51:46;;;;;;;6.60;6.00;;;6.30;99.90;6.60;103751.00;;;;5014622;28;20204;-78
2021/12/17 03:54:17;;;;;;;0.63;0.63;;;6.40;99.90;6.60;103740.00;;;;5015347;28;20173;-77
2021/12/17 03:56:48;;;;;;;0.50;0.50;;;6.40;99.90;6.60;103746.00;;;;5014105;28;20179;-76
2021/12/17 03:59:19;;;;;;;2.40;2.30;;;6.40;99.90;6.50;103739.00;;;;5014726;28;20624;-77
2021/12/17 04:01:50;;;;;;;0.60;0.60;;;6.40;99.90;6.60;103697.00;;;;5014467;28;20179;-76
2021/12/17 04:04:24;;;;;;;0.70;0.70;;;6.40;99.90;6.30;103720.00;;;;5014123;28;20187;-75
2021/12/17 04:06:58;;;;;;;1.10;1.10;;;6.20;99.90;6.60;103751.00;;;;5014573;28;20276;-75
2021/12/17 04:09:32;;;;;;;3.10;1.73;;;6.30;99.90;6.60;103742.00;;;;5014811;28;20708;-75
2021/12/17 04:12:10;;;;;;;0.77;0.77;;;6.30;99.90;6.60;103744.00;;;;5014488;28;20210;-75
2021/12/17 04:14:44;;;;;;;0.53;0.53;;;6.40;99.90;6.10;103748.00;;;;5014381;28;20751;-74
2021/12/17 04:17:25;;;;;;;2.67;2.57;;;6.20;99.90;6.50;103749.00;;;;5014496;28;20177;-76
2021/12/17 04:19:56;;;;;;;0.80;0.80;;;6.20;99.90;6.30;103751.00;;;;5014433;28;20175;-76
2021/12/17 04:22:30;;;;;;;0.57;0.57;;;6.20;99.90;6.20;103739.00;;;;5013954;28;20278;-76
2021/12/17 04:24:59;;;;;;;0.93;0.93;;;6.10;99.90;6.20;103736.00;;;;5014074;28;20214;-76
2021/12/17 04:27:30;;;;;;;0.50;0.50;;;6.10;99.90;6.10;103737.00;;;;5014222;28;20629;-75
2021/12/17 04:30:03;;;;;;;1.13;1.13;;;6.00;99.90;6.30;103699.00;;;;5014095;28;20175;-75
2021/12/17 04:32:34;;;;;;;1.60;1.50;;;6.10;99.90;6.40;103746.00;;;;5014088;28;20269;-76
2021/12/17 04:35:08;;;;;;;1.33;1.33;;;6.10;99.90;6.40;103740.00;;;;5014198;28;20254;-76
2021/12/17 04:37:39;;;;;;;0.70;0.70;;;6.20;99.90;6.50;103741.00;;;;5014283;28;20587;-76
2021/12/17 04:40:12;;;;;;;0.50;0.50;;;6.30;99.90;6.50;103755.00;;;;5015494;28;20186;-76
2021/12/17 04:43:09;;;;;;;0.80;0.80;;;6.30;99.90;6.10;103758.00;;;;5012831;28;20565;-76
2021/12/17 04:45:39;;;;;;;0.90;0.90;;;6.20;99.90;4.90;103756.00;;;;5016995;28;20206;-77
2021/12/17 04:59:26;;;;;;;0.97;0.97;;;5.00;99.90;4.70;103779.00;;;;5013695;28;20229;-75
2021/12/17 05:01:56;;;;;;;1.43;1.43;;;4.90;99.90;4.30;103784.00;;;;5014280;28;20175;-75
2021/12/17 05:04:27;;;;;;;0.30;0.30;;;4.90;99.90;5.10;103738.00;;;;5012821;28;20179;-75
2021/12/17 05:06:59;;;;;;;0.50;0.50;;;5.00;99.90;4.70;103793.00;;;;5014889;28;20262;-75
2021/12/17 05:09:46;;;;;;;0.57;0.57;;;5.00;99.90;4.80;103767.00;;;;5013441;28;20199;-76
2021/12/17 05:20:54;;;;;;;2.20;1.83;;;5.00;99.90;4.60;103800.00;;;;5013224;28;20179;-74
2021/12/17 05:23:30;;;;;;;0.50;0.50;;;5.10;99.90;4.80;103803.00;;;;5013184;28;20190;-74
2021/12/17 05:26:10;;;;;;;4.27;1.10;;;5.10;99.90;4.70;103801.00;;;;5013203;28;20171;-73
2021/12/17 05:28:42;;;;;;;2.10;1.40;;;5.20;99.90;5.30;103765.00;;;;5012607;28;20175;-74
2021/12/17 05:31:15;;;;;;;0.40;0.40;;;5.20;99.90;4.80;103809.00;;;;5012827;28;20166;-75
2021/12/17 05:33:46;;;;;;;0.70;0.70;;;5.20;99.90;5.10;103745.00;;;;5013460;28;20183;-77
2021/12/17 05:36:18;;;;;;;0.50;0.50;;;5.30;99.90;5.60;103795.00;;;;5013550;28;20617;-77
2021/12/17 05:38:53;;;;;;;0.40;0.40;;;5.40;99.90;6.20;103758.00;;;;5013388;28;20179;-76
2021/12/17 05:41:19;;;;;;;0.40;0.40;;;5.80;99.90;5.40;103784.00;;;;5011500;28;20191;-77
2021/12/17 05:43:55;;;;;;;0.93;0.93;;;5.70;99.90;5.60;103784.00;;;;5012193;28;20195;-76
2021/12/17 05:49:22;;;;;;;0.50;0.50;;;5.70;99.90;5.10;103803.00;;;;5012898;28;20614;-76
2021/12/17 05:51:55;;;;;;;0.93;0.93;;;5.60;99.90;5.10;103788.00;;;;5012609;28;20223;-76
2021/12/17 05:54:26;;;;;;;0.47;0.47;;;5.50;99.90;5.10;103794.00;;;;5011379;28;20188;-76
2021/12/17 05:56:57;;;;;;;0.40;0.40;;;5.50;99.90;5.10;103796.00;;;;5012419;28;20241;-76
2021/12/17 05:59:33;;;;;;;0.60;0.60;;;5.40;99.90;5.20;103793.00;;;;5012620;28;20195;-76
2021/12/17 06:02:13;;;;;;;0.40;0.40;;;5.60;99.90;5.50;103793.00;;;;5013012;28;20640;-76
2021/12/17 06:04:47;;;;;;;1.23;1.23;;;5.60;99.90;5.50;103793.00;;;;5012226;28;20175;-76
2021/12/17 06:07:28;;;;;;;0.60;0.60;;;5.60;99.90;5.20;103795.00;;;;5012361;28;20176;-76
2021/12/17 06:10:04;;;;;;;0.43;0.43;;;5.70;99.90;6.00;103801.00;;;;5012892;28;20229;-76
2021/12/17 06:12:35;;;;;;;0.50;0.50;;;5.80;99.90;6.40;103812.00;;;;5012370;28;20211;-76
2021/12/17 06:15:10;;;;;;;0.73;0.73;;;6.10;99.90;6.40;103805.00;;;;5012248;28;20187;-76
2021/12/17 06:17:45;;;;;;;0.60;0.60;;;6.20;99.90;6.50;103809.00;;;;5011737;28;20183;-76
2021/12/17 06:20:22;;;;;;;1.10;1.00;;;6.30;99.90;5.50;103823.00;;;;5013027;28;20159;-75
2021/12/17 06:22:53;;;;;;;0.97;0.97;;;5.90;99.90;5.90;103811.00;;;;5013643;28;20188;-75
2021/12/17 06:25:24;;;;;;;0.63;0.63;;;5.90;99.90;6.00;103814.00;;;;5012130;28;20185;-75
2021/12/17 06:27:55;;;;;;;0.50;0.50;;;5.90;99.90;6.10;103805.00;;;;5013275;28;20223;-76
2021/12/17 06:30:24;;;;;;;1.80;1.53;;;6.00;99.90;6.70;103809.00;;;;5011353;28;20210;-75
2021/12/17 06:32:56;;;;;;;1.50;1.43;;;6.20;99.90;6.70;103810.00;;;;5013196;28;20357;-75
2021/12/17 06:35:28;;;;;;;0.60;0.60;;;6.30;99.90;6.10;103812.00;;;;5012006;28;20181;-75
2021/12/17 06:37:57;;;;;;;0.70;0.70;;;6.40;99.90;5.70;103820.00;;;;5012365;28;20278;-75
2021/12/17 06:40:32;;;;;;;0.40;0.40;;;6.10;99.90;6.00;103820.00;;;;5012025;28;20176;-76
2021/12/17 06:43:08;;;;;;;0.50;0.50;;;6.10;99.90;5.80;103810.00;;;;5012147;28;20639;-74
2021/12/17 06:45:43;;;;;;;0.57;0.57;;;6.20;99.90;6.10;103812.00;;;;5011254;28;20194;-76
2021/12/17 06:48:12;;;;;;;0.60;0.60;;;6.20;99.90;6.80;103815.00;;;;5012652;28;20169;-75
2021/12/17 06:57:09;;;;;;;1.90;1.80;;;6.20;99.90;6.20;103816.00;;;;5015934;28;20398;-75
2021/12/17 06:59:52;;;;;;;1.03;1.03;;;6.10;99.90;6.40;103823.00;;;;5015177;28;20199;-76
2021/12/17 07:10:49;;;;;;;1.27;1.27;;;6.60;99.90;6.80;103784.00;;;;5015542;28;20197;-74
2021/12/17 07:22:17;;;;;;;2.20;1.73;;;7.10;99.90;6.50;103794.00;;;;5015348;28;20275;-74
2021/12/17 07:33:15;;;;;;;0.50;0.50;;;6.60;99.90;6.80;103799.00;;;;5015464;28;20567;-73
2021/12/17 07:35:49;;;;;;;0.60;0.60;;;6.70;99.90;6.80;103839.00;;;;5015489;28;20218;-72
2021/12/17 07:38:47;;;;;;;0.93;0.93;;;6.90;99.90;6.00;103846.00;;;;5015451;28;20185;-72
2021/12/17 07:41:21;;;;;;;0.83;0.83;;;6.60;99.90;6.20;103849.00;;;;5017136;28;20174;-74
2021/12/17 07:43:53;;;;;;;0.50;0.50;;;6.50;99.90;6.30;103838.00;;;;5015155;28;20189;-75
2021/12/17 07:46:24;;;;;;;3.43;3.23;;;6.50;99.90;6.60;103849.00;;;;5014929;28;20196;-74
2021/12/17 07:48:55;;;;;;;0.63;0.63;;;6.70;99.90;6.60;103795.00;;;;5013776;28;20658;-74
2021/12/17 07:51:29;;;;;;;0.40;0.40;;;6.60;99.90;6.70;103846.00;;;;4998383;28;20190;-74
2021/12/17 07:54:03;;;;;;;0.40;0.40;;;6.70;99.90;6.80;103808.00;;;;4998465;28;20592;-74
2021/12/17 07:56:43;;;;;;;0.97;0.97;;;6.80;99.90;6.90;103800.00;;;;5014300;28;20280;-74
2021/12/17 07:59:14;;;;;;;1.17;1.07;;;6.80;99.90;7.20;103849.00;;;;5016704;28;20168;-75
2021/12/17 08:01:47;;;;;;;1.33;1.33;;;6.80;99.90;7.00;103840.00;;;;5014651;28;20180;-74
2021/12/17 08:04:21;;;;;;;6.43;6.00;;;7.00;99.90;7.00;103850.00;;;;5013742;28;20230;-75
2021/12/17 08:06:49;;;;;;;8.43;8.13;;;7.00;99.90;7.20;103847.00;;;;5015795;28;20683;-74
2021/12/17 08:09:21;;;;;;;8.37;4.10;;;7.10;99.90;7.20;103851.00;;;;4998508;28;20657;-75
2021/12/17 08:11:56;;;;;;;0.50;0.50;;;7.10;99.90;6.90;103803.00;;;;5014558;28;20213;-74
2021/12/17 08:14:30;;;;;;;3.90;2.43;;;7.00;99.90;7.70;103835.00;;;;5014621;28;20432;-73
2021/12/17 08:17:11;;;;;;;0.70;0.70;;;7.20;99.90;7.40;103838.00;;;;5014737;28;20224;-73
2021/12/17 08:27:48;;;;;;;0.50;0.50;;;7.00;99.90;7.00;103847.00;;;;5010568;28;20216;-73
2021/12/17 08:30:24;;;;;;;1.00;1.00;;;7.00;99.90;8.00;103864.00;;;;5009932;28;20179;-73
2021/12/17 08:32:52;;;;;;;3.00;2.77;;;7.50;99.90;7.80;103853.00;;;;4994768;28;20679;-73
2021/12/17 08:35:26;;;;;;;1.13;1.07;;;7.50;99.90;7.70;103858.00;;;;4993690;28;20590;-73
2021/12/17 08:37:57;;;;;;;3.23;2.00;;;7.60;99.90;8.00;103848.00;;;;4994696;28;20187;-73
2021/12/17 08:40:29;;;;;;;0.57;0.57;;;7.60;99.90;7.60;103848.00;;;;5010417;28;20639;-73
2021/12/17 08:43:01;;;;;;;0.50;0.50;;;7.60;99.90;8.00;103852.00;;;;5010420;28;20229;-73
2021/12/17 08:45:32;;;;;;;0.70;0.70;;;7.70;99.90;8.20;103854.00;;;;5010618;28;20193;-74
2021/12/17 08:48:04;;;;;;;0.60;0.60;;;7.90;99.90;8.30;103852.00;;;;5009795;28;20687;-73
2021/12/17 08:50:37;;;;;;;2.07;2.07;;;7.90;99.90;8.60;103842.00;;;;5010532;28;20202;-74
2021/12/17 08:53:10;;;;;;;0.57;0.57;;;8.10;99.90;8.60;103843.00;;;;4993530;28;20272;-73
2021/12/17 08:55:42;;;;;;;1.13;1.13;;;8.20;99.90;8.50;103841.00;;;;4993762;28;20671;-73
2021/12/17 08:58:14;;;;;;;1.50;1.47;;;8.20;99.90;8.80;103827.00;;;;4994951;28;20183;-74
2021/12/17 09:00:51;;;;;;;0.97;0.97;;;8.20;99.90;8.50;103843.00;;;;5010411;28;20182;-77
2021/12/17 09:03:24;;;;;;;0.70;0.70;;;8.30;99.90;9.00;103844.00;;;;5009923;28;20233;-77
2021/12/17 09:06:01;;;;;;;0.60;0.60;;;8.40;99.90;8.30;103829.00;;;;5006540;28;20642;-75
2021/12/17 09:08:30;;;;;;;1.37;1.37;;;8.30;99.90;8.70;103811.00;;;;4999033;28;20276;-76
2021/12/17 09:11:11;;;;;;;0.80;0.80;;;8.40;99.90;8.60;103854.00;;;;5012197;28;20184;-75
2021/12/17 09:13:45;;;;;;;0.70;0.70;;;8.40;99.90;8.20;103856.00;;;;5013401;28;20281;-75
2021/12/17 09:16:20;;;;;;;9.20;2.37;;;8.30;99.90;8.40;103845.00;;;;5029226;28;20606;-75
2021/12/17 09:18:59;;;;;;;3.10;2.40;;;8.20;99.90;8.80;103843.00;;;;5015946;28;20561;-75
2021/12/17 09:21:32;;;;;;;0.60;0.60;;;8.40;99.90;8.90;103844.00;;;;4993631;28;20222;-69
2021/12/17 09:24:04;;;;;;;0.90;0.90;;;8.60;99.90;8.90;103861.00;;;;4995291;28;20172;-70
2021/12/17 09:26:39;;;;;;;0.80;0.80;;;8.60;99.90;8.50;103867.00;;;;5018275;28;20196;-75
2021/12/17 09:29:10;;;;;;;0.60;0.60;;;8.60;99.90;8.40;103864.00;;;;5002996;28;20199;-76
2021/12/17 09:31:47;;;;;;;2.93;2.57;;;8.30;99.90;8.50;103858.00;;;;4977169;28;20219;-75
2021/12/17 09:34:20;;;;;;;2.77;2.57;;;8.40;99.90;8.70;103858.00;;;;4993522;28;20202;-75
2021/12/17 09:36:51;;;;;;;1.53;1.53;;;8.50;99.90;8.80;103863.00;;;;4995049;28;20213;-75
2021/12/17 09:39:18;;;;;;;0.97;0.97;;;8.50;99.90;8.80;103874.00;;;;5012939;28;20191;-66
2021/12/17 09:41:57;;;;;;;10.37;3.57;;;8.60;99.90;8.80;103881.00;;;;5014302;28;20270;-64
2021/12/17 09:44:29;;;;;;;1.83;1.80;;;8.50;99.90;8.80;103878.00;;;;5014210;28;20196;-67
2021/12/17 09:46:57;;;;;;;2.10;2.00;;;8.60;99.90;8.80;103874.00;;;;5013344;28;20652;-78
2021/12/17 09:49:34;;;;;;;0.77;0.77;;;8.60;99.90;8.80;103872.00;;;;5023586;28;20181;-78
2021/12/17 09:52:01;;;;;;;2.57;2.47;;;8.60;99.90;9.00;103889.00;;;;5012658;28;20246;-78
2021/12/17 09:54:28;;;;;;;0.57;0.57;;;8.70;99.90;8.60;103886.00;;;;5013006;28;20182;-76
2021/12/17 09:57:00;;;;;;;0.90;0.90;;;8.60;99.90;7.90;103884.00;;;;5014137;28;20179;-76
2021/12/17 09:59:34;;;;;;;0.80;0.80;;;8.30;99.90;7.70;103893.00;;;;4996525;28;20183;-75
2021/12/17 10:02:08;;;;;;;1.27;1.17;;;8.00;99.90;7.40;103896.00;;;;5012626;28;20171;-77
2021/12/17 10:04:45;;;;;;;0.40;0.40;;;7.90;99.90;7.40;103888.00;;;;5012486;28;20233;-77
2021/12/17 10:07:26;;;;;;;1.57;1.57;;;7.70;99.90;7.70;103891.00;;;;5012421;28;20179;-76
2021/12/17 10:10:00;;;;;;;1.10;1.10;;;7.70;99.90;7.60;103895.00;;;;5012660;28;20187;-76
2021/12/17 10:12:31;;;;;;;0.73;0.73;;;7.70;99.90;8.30;103885.00;;;;4995672;28;20675;-75
2021/12/17 10:15:11;;;;;;;0.50;0.50;;;8.00;99.90;8.40;103892.00;;;;4994980;28;20215;-73
2021/12/17 10:17:58;;;;;;;1.23;1.23;;;8.10;99.90;8.10;103901.00;;;;4993766;28;20589;-73
2021/12/17 10:20:33;;;;;;;1.70;1.60;;;8.10;99.90;7.50;103859.00;;;;4992961;28;20183;-74
2021/12/17 10:33:27;;;;;;;0.90;0.87;;;7.50;99.90;7.10;103902.00;;;;5050487;28;20977;-73
2021/12/17 10:36:04;;;;;;;0.37;0.37;;;7.50;99.90;7.40;103895.00;;;;5049032;28;20208;-72
2021/12/17 10:38:43;;;;;;;1.50;1.33;;;7.70;99.90;7.70;103903.00;;;;5033045;28;20190;-72
2021/12/17 10:41:17;;;;;;;2.40;2.30;;;7.80;99.90;8.00;103892.00;;;;5032821;28;20189;-72
2021/12/17 10:43:55;;;;;;;1.50;1.50;;;8.00;99.90;7.90;103855.00;;;;5032614;28;20194;-73
2021/12/17 10:46:31;;;;;;;1.90;1.80;;;8.00;99.90;7.70;103867.00;;;;5049058;28;20181;-73
2021/12/17 10:51:46;;;;;;;0.87;0.57;;;7.80;99.90;7.80;103899.00;;;;5049031;28;20216;-73
2021/12/17 10:54:20;;;;;;;5.03;4.10;;;7.90;99.90;7.90;103851.00;;;;5032795;28;20243;-73
2021/12/17 10:56:57;;;;;;;3.47;3.10;;;8.00;99.90;7.90;103893.00;;;;5049231;28;20213;-72
2021/12/17 10:59:31;;;;;;;3.97;3.60;;;8.10;99.90;7.50;103900.00;;;;5032336;28;20661;-73
2021/12/17 11:02:10;;;;;;;3.80;2.93;;;7.90;99.90;7.40;103897.00;;;;5031680;28;20182;-72
2021/12/17 11:04:51;;;;;;;1.50;0.97;;;7.80;99.90;7.90;103898.00;;;;5032362;28;20248;-73
2021/12/17 11:07:22;;;;;;;12.40;11.43;;;8.00;99.90;8.60;103906.00;;;;5048399;28;20233;-72
2021/12/17 11:10:00;;;;;;;3.63;3.43;;;8.30;99.90;8.20;103898.00;;;;5028904;28;20193;-71
2021/12/17 11:12:46;;;;;;;0.60;0.60;;;8.30;99.90;8.60;103896.00;;;;5029180;28;20233;-72
2021/12/17 11:15:27;;;;;;;2.40;1.70;;;8.30;99.90;8.80;103896.00;;;;5011081;28;20183;-72
2021/12/17 11:18:00;;;;;;;1.33;1.33;;;8.60;99.90;8.70;103899.00;;;;5028419;28;20667;-72
2021/12/17 11:20:39;;;;;;;4.83;2.73;;;8.60;99.90;8.40;103896.00;;;;5011894;28;20729;-72
2021/12/17 11:23:14;;;;;;;1.20;1.13;;;8.50;99.90;8.30;103901.00;;;;5028665;28;20226;-72
2021/12/17 11:25:53;;;;;;;2.13;2.03;;;8.50;99.90;8.60;103889.00;;;;5028581;28;20580;-72
2021/12/17 11:28:27;;;;;;;3.03;1.80;;;8.60;99.90;8.60;103903.00;;;;5012220;28;20187;-72
2021/12/17 11:30:58;;;;;;;1.97;1.70;;;8.70;99.90;8.50;103885.00;;;;5011290;28;20218;-74
2021/12/17 11:33:36;;;;;;;1.30;1.20;;;8.50;99.90;8.50;103837.00;;;;5011041;28;20277;-74
2021/12/17 11:36:08;;;;;;;6.53;3.00;;;8.60;99.90;8.30;103878.00;;;;5028213;28;20182;-74
2021/12/17 11:38:55;;;;;;;2.10;2.00;;;8.40;99.90;9.00;103843.00;;;;5029646;28;20294;-73
2021/12/17 11:41:48;;;;;;;9.03;8.50;;;8.70;99.90;8.40;103877.00;;;;5027763;28;20176;-74
2021/12/17 11:44:28;;;;;;;1.90;1.63;;;8.50;99.90;8.50;103870.00;;;;5001060;28;20633;-74
2021/12/17 11:47:08;;;;;;;3.30;3.07;;;8.60;99.90;9.10;103869.00;;;;5015136;28;20209;-74
2021/12/17 11:49:44;;;;;;;0.70;0.70;;;8.80;99.90;8.60;103877.00;;;;4998792;28;20186;-74
2021/12/17 11:52:38;;;;;;;3.20;2.90;;;8.70;99.90;8.20;103890.00;;;;4998308;28;20209;-73
2021/12/17 11:55:25;;;;;;;3.60;1.80;;;8.40;99.90;8.00;103851.00;;;;4998219;28;20184;-73
2021/12/17 11:58:02;;;;;;;2.23;0.53;;;8.30;99.90;8.60;103874.00;;;;5013399;28;20314;-73
2021/12/17 12:00:50;;;;;;;2.13;2.00;;;8.50;99.90;8.00;103878.00;;;;4998466;28;20190;-74
2021/12/17 12:03:24;;;;;;;0.90;0.87;;;8.30;99.90;8.60;103853.00;;;;4998112;28;20333;-74
2021/12/17 12:05:58;;;;;;;1.13;1.13;;;8.40;99.90;9.10;103876.00;;;;4997863;28;20652;-73
2021/12/17 12:08:51;;;;;;;4.93;2.93;;;8.80;99.90;8.80;103864.00;;;;4997877;28;20717;-73
2021/12/17 12:11:27;;;;;;;2.20;0.87;;;8.80;99.90;8.40;103837.00;;;;5013975;28;20200;-74
2021/12/17 12:13:55;;;;;;;1.17;1.17;;;8.70;99.90;8.00;103875.00;;;;4996932;28;20191;-73
2021/12/17 12:16:27;;;;;;;4.83;3.13;;;8.40;99.90;7.90;103835.00;;;;5014459;28;20173;-74
2021/12/17 12:19:11;;;;;;;3.50;2.10;;;8.30;99.90;8.10;103874.00;;;;4984954;28;20278;-73
2021/12/17 12:21:42;;;;;;;0.40;0.40;;;8.30;99.90;8.20;103850.00;;;;5027460;28;20212;-73
2021/12/17 12:24:16;;;;;;;1.10;1.10;;;8.40;99.90;8.40;103846.00;;;;5038892;28;20188;-73
2021/12/17 12:26:53;;;;;;;0.40;0.40;;;8.50;99.90;8.30;103829.00;;;;5013766;28;20186;-73
2021/12/17 12:29:29;;;;;;;0.97;0.97;;;8.60;99.90;8.40;103860.00;;;;5000231;28;20245;-72
2021/12/17 12:32:20;;;;;;;8.77;2.93;;;8.50;99.90;8.30;103866.00;;;;4993804;28;20223;-73
2021/12/17 12:35:09;;;;;;;2.53;2.43;;;8.60;99.90;8.80;103871.00;;;;4994807;28;20185;-73
2021/12/17 12:37:38;;;;;;;1.83;1.83;;;8.70;99.90;8.80;103869.00;;;;4978730;28;20176;-73
2021/12/17 12:40:15;;;;;;;2.43;2.33;;;8.80;99.90;8.70;103865.00;;;;4994551;28;20199;-73
2021/12/17 12:42:48;;;;;;;2.47;2.40;;;8.70;99.90;8.70;103862.00;;;;5008380;28;20240;-73
2021/12/17 12:45:24;;;;;;;2.20;2.10;;;8.80;99.90;9.20;103843.00;;;;4994694;28;20212;-73
2021/12/17 12:47:58;;;;;;;0.40;0.40;;;8.90;99.90;9.20;103840.00;;;;4993993;28;20184;-73
2021/12/17 12:50:30;;;;;;;1.43;1.43;;;9.00;99.90;9.50;103845.00;;;;5004170;28;20188;-73
2021/12/17 12:53:05;;;;;;;2.90;1.87;;;9.20;99.90;8.60;103834.00;;;;5026870;28;20208;-73
2021/12/17 12:55:48;;;;;;;4.20;3.90;;;9.10;99.90;8.40;103844.00;;;;5009630;28;20234;-73
2021/12/17 12:58:28;;;;;;;2.40;1.60;;;8.80;99.90;8.40;103844.00;;;;5012684;28;20188;-73
2021/12/17 13:01:07;;;;;;;2.00;1.90;;;8.70;99.90;8.50;103843.00;;;;5013520;28;20230;-73
2021/12/17 13:03:44;;;;;;;5.83;3.60;;;8.60;99.90;9.10;103836.00;;;;5046611;28;20179;-66
2021/12/17 13:06:23;;;;;;;2.53;2.33;;;8.90;99.90;8.40;103840.00;;;;5014566;28;20234;-68
2021/12/17 13:09:00;;;;;;;1.97;1.60;;;8.70;99.90;8.10;103834.00;;;;5014669;28;20560;-69
2021/12/17 13:11:43;;;;;;;1.60;1.50;;;8.60;99.90;8.30;103842.00;;;;5011920;28;20231;-69
2021/12/17 13:14:18;;;;;;;3.50;2.67;;;8.60;99.90;8.00;103839.00;;;;5013537;28;20183;-69
2021/12/17 13:22:54;;;;;;;0.90;0.90;;;8.70;99.90;8.30;103825.00;;;;5013396;28;20546;-76
2021/12/17 13:25:31;;;;;;;1.67;1.60;;;8.60;99.90;8.50;103814.00;;;;5013089;28;20235;-76
2021/12/17 13:28:01;;;;;;;9.73;5.40;;;8.60;99.90;8.30;103821.00;;;;5013155;28;20163;-77
2021/12/17 13:30:30;;;;;;;3.13;2.93;;;8.60;99.90;8.40;103781.00;;;;5013529;28;20215;-76
2021/12/17 13:33:02;;;;;;;0.93;0.93;;;8.60;99.90;8.20;103823.00;;;;5013035;28;20215;-77
2021/12/17 13:35:34;;;;;;;8.87;4.20;;;8.50;99.90;8.00;103826.00;;;;4996801;28;20266;-76
2021/12/17 13:38:06;;;;;;;2.77;2.50;;;8.40;99.90;8.10;103820.00;;;;5012656;28;20180;-77
2021/12/17 13:40:36;;;;;;;0.30;0.30;;;8.40;99.90;8.80;103815.00;;;;4995830;28;20283;-76
2021/12/17 13:43:08;;;;;;;2.57;1.70;;;8.70;99.90;8.40;103811.00;;;;5012306;28;20196;-76
2021/12/17 13:45:46;;;;;;;4.47;2.70;;;8.70;99.90;8.50;103798.00;;;;5012744;28;20184;-76
2021/12/17 13:48:32;;;;;;;1.17;1.10;;;8.70;99.90;8.50;103808.00;;;;5012736;28;20508;-77
2021/12/17 13:51:00;;;;;;;2.00;1.87;;;8.60;99.90;8.30;103800.00;;;;5012024;28;20666;-78
2021/12/17 13:53:26;;;;;;;0.60;0.60;;;8.60;99.90;8.50;103804.00;;;;5012556;28;20223;-78
2021/12/17 13:55:52;;;;;;;1.70;1.60;;;8.60;99.90;8.50;103755.00;;;;4995521;28;20214;-78
2021/12/17 13:58:24;;;;;;;3.90;2.70;;;8.80;99.90;8.40;103798.00;;;;5012911;28;20183;-78
2021/12/17 14:01:04;;;;;;;1.77;1.67;;;8.60;99.90;8.10;103794.00;;;;4996303;28;20175;-78
2021/12/17 14:03:38;;;;;;;12.00;3.33;;;8.60;99.90;8.30;103786.00;;;;5012163;28;20176;-78
2021/12/17 14:06:18;;;;;;;1.90;1.80;;;8.60;99.90;8.20;103788.00;;;;4996058;28;20199;-79
2021/12/17 14:08:54;;;;;;;0.53;0.53;;;8.60;99.90;8.30;103790.00;;;;5011092;28;20164;-80
2021/12/17 14:11:31;;;;;;;1.53;1.50;;;8.50;99.90;8.40;103794.00;;;;4996359;28;20200;-80
2021/12/17 14:14:03;;;;;;;3.30;2.50;;;8.60;99.90;8.20;103803.00;;;;5012235;28;20582;-79
2021/12/17 14:16:33;;;;;;;1.17;1.17;;;8.60;99.90;9.00;103778.00;;;;5013219;28;20223;-78
2021/12/17 14:19:02;;;;;;;2.70;2.50;;;8.80;99.90;8.60;103797.00;;;;5011878;28;20262;-78
2021/12/17 14:21:31;;;;;;;2.43;2.23;;;8.80;99.90;8.40;103763.00;;;;5012580;28;20271;-79
2021/12/17 14:24:02;;;;;;;0.37;0.37;;;8.70;99.90;8.60;103751.00;;;;5011271;28;20183;-77
2021/12/17 14:26:33;;;;;;;8.30;4.40;;;8.70;99.90;8.10;103795.00;;;;5011772;28;20188;-78